Time;durP1;ratioP1;P1;durP2;ratioP2;P2;SDS_P1;SDS_P2;PMS_P1;PMS_P2;Temp;Humidity;BMP_temperature;BMP_pressure;BME280_temperature;BME280_humidity;BME280_pressure;Samples;Min_cycle;Max_cycle;Signal;HPM_P1;HPM_P2
2022/09/27 00:00:32;;;;;;;12.25;2.55;;;10.50;92.90;;;;;;5093201;28;20032;-50
2022/09/27 00:02:58;;;;;;;9.73;3.65;;;10.50;93.10;;;;;;5094634;28;20050;-49
2022/09/27 00:05:24;;;;;;;11.57;3.13;;;10.50;93.10;;;;;;5094314;28;20028;-50
2022/09/27 00:07:50;;;;;;;14.13;3.65;;;10.50;93.20;;;;;;5092936;28;20430;-50
2022/09/27 00:10:15;;;;;;;7.35;2.47;;;10.60;93.20;;;;;;5094397;28;20482;-49
2022/09/27 00:12:41;;;;;;;6.13;2.50;;;10.50;93.20;;;;;;5094081;28;20024;-48
2022/09/27 00:15:08;;;;;;;8.50;2.20;;;10.50;93.30;;;;;;5094371;28;20067;-48
2022/09/27 00:17:36;;;;;;;11.27;2.38;;;10.30;93.10;;;;;;5094267;28;20413;-50
2022/09/27 00:20:03;;;;;;;6.40;2.25;;;10.30;93.10;;;;;;5093929;28;20032;-51
2022/09/27 00:22:30;;;;;;;8.23;2.15;;;10.40;93.10;;;;;;5094102;28;20122;-49
2022/09/27 00:24:55;;;;;;;5.78;1.65;;;10.30;93.10;;;;;;5093772;28;20130;-49
2022/09/27 00:27:21;;;;;;;7.25;1.77;;;10.30;93.00;;;;;;5094178;28;20081;-49
2022/09/27 00:29:46;;;;;;;11.60;2.10;;;10.30;93.10;;;;;;5093790;28;20054;-48
2022/09/27 00:32:13;;;;;;;9.13;1.70;;;10.30;93.30;;;;;;5094051;28;20456;-49
2022/09/27 00:34:40;;;;;;;6.95;1.67;;;10.30;93.20;;;;;;5093168;28;20027;-48
2022/09/27 00:37:06;;;;;;;5.25;1.48;;;10.30;93.20;;;;;;5093728;28;20024;-49
2022/09/27 00:39:32;;;;;;;4.10;1.65;;;10.30;93.10;;;;;;5093805;28;20044;-49
2022/09/27 00:41:57;;;;;;;15.15;2.17;;;10.20;93.00;;;;;;5093737;28;20056;-49
2022/09/27 00:44:27;;;;;;;10.30;2.28;;;10.20;93.00;;;;;;5093863;28;20070;-51
2022/09/27 00:47:28;;;;;;;7.28;1.80;;;10.20;93.00;;;;;;5093730;28;20024;-49
2022/09/27 00:50:06;;;;;;;8.25;2.28;;;10.30;93.00;;;;;;5088776;28;20093;-48
2022/09/27 00:52:47;;;;;;;7.45;3.08;;;10.30;93.10;;;;;;5093971;28;20027;-49
2022/09/27 00:55:19;;;;;;;8.98;3.25;;;10.30;93.20;;;;;;5093632;28;20073;-48
2022/09/27 00:57:47;;;;;;;7.50;2.88;;;10.30;93.10;;;;;;5093338;28;20016;-49
2022/09/27 01:00:14;;;;;;;8.48;3.72;;;10.30;93.20;;;;;;5092052;28;20028;-48
2022/09/27 01:02:47;;;;;;;8.40;4.22;;;10.30;93.20;;;;;;5093218;28;20099;-49
2022/09/27 01:05:16;;;;;;;11.18;4.22;;;10.30;93.10;;;;;;5093076;28;20028;-48
2022/09/27 01:07:42;;;;;;;17.33;5.13;;;10.30;92.90;;;;;;5093325;28;20065;-49
2022/09/27 01:10:08;;;;;;;12.55;3.55;;;10.30;93.00;;;;;;5093077;28;20024;-50
2022/09/27 01:12:59;;;;;;;9.68;3.72;;;10.30;93.00;;;;;;5093276;28;20028;-48
2022/09/27 01:15:28;;;;;;;11.95;3.60;;;10.30;93.00;;;;;;5092971;28;20103;-48
2022/09/27 01:18:12;;;;;;;5.57;3.58;;;10.30;93.10;;;;;;5092929;28;20472;-48
2022/09/27 01:20:46;;;;;;;8.82;3.55;;;10.30;93.00;;;;;;5092854;28;20027;-49
2022/09/27 01:23:49;;;;;;;14.85;4.65;;;10.30;93.10;;;;;;5092848;28;20032;-49
2022/09/27 01:26:35;;;;;;;9.18;3.90;;;10.30;93.20;;;;;;5093006;28;20040;-49
2022/09/27 01:29:48;;;;;;;12.65;4.00;;;10.30;93.10;;;;;;5092134;28;20034;-50
2022/09/27 01:32:28;;;;;;;8.70;4.13;;;10.30;93.20;;;;;;5092833;28;20438;-50
2022/09/27 01:35:15;;;;;;;16.45;4.93;;;10.30;93.20;;;;;;5093395;28;20024;-47
2022/09/27 01:38:04;;;;;;;11.88;5.53;;;10.30;93.20;;;;;;5092029;28;20020;-49
2022/09/27 01:40:43;;;;;;;17.55;7.20;;;10.30;93.40;;;;;;5093190;28;20402;-48
2022/09/27 01:43:17;;;;;;;14.32;5.43;;;10.30;93.40;;;;;;5092874;28;20024;-48
2022/09/27 01:45:49;;;;;;;16.77;6.45;;;10.30;93.40;;;;;;5094150;28;20074;-48
2022/09/27 01:48:20;;;;;;;15.63;7.63;;;10.20;93.50;;;;;;5097173;28;20055;-49
2022/09/27 01:50:49;;;;;;;13.38;7.10;;;10.30;93.40;;;;;;5097404;28;20089;-48
2022/09/27 01:53:20;;;;;;;16.13;9.38;;;10.30;93.40;;;;;;5096597;28;20027;-49
2022/09/27 01:55:49;;;;;;;12.45;7.70;;;10.30;93.20;;;;;;5096726;28;20039;-49
2022/09/27 01:58:39;;;;;;;15.43;9.20;;;10.30;93.10;;;;;;5096481;28;20024;-51
2022/09/27 02:01:09;;;;;;;15.43;8.65;;;10.30;93.10;;;;;;5095341;28;20096;-47
2022/09/27 02:03:39;;;;;;;13.52;7.88;;;10.30;93.00;;;;;;5097118;28;20448;-48
2022/09/27 02:06:15;;;;;;;16.90;7.23;;;10.30;92.90;;;;;;5095971;28;20013;-48
2022/09/27 02:08:49;;;;;;;11.55;6.70;;;10.30;92.70;;;;;;5094773;28;20726;-49
2022/09/27 02:11:15;;;;;;;13.50;7.53;;;10.30;92.60;;;;;;5096312;28;20101;-49
2022/09/27 02:14:03;;;;;;;13.15;5.97;;;10.20;92.60;;;;;;5096132;28;20464;-49
2022/09/27 02:16:49;;;;;;;12.13;7.10;;;10.30;92.70;;;;;;5096557;28;20063;-49
2022/09/27 02:19:47;;;;;;;14.02;7.97;;;10.30;92.70;;;;;;5096176;28;20107;-50
2022/09/27 02:22:28;;;;;;;15.52;5.82;;;10.30;92.50;;;;;;5096384;28;20107;-50
2022/09/27 02:24:57;;;;;;;11.90;6.43;;;10.30;92.30;;;;;;5095828;28;20051;-49
2022/09/27 02:27:28;;;;;;;7.88;5.30;;;10.30;92.30;;;;;;5095981;28;20024;-48
2022/09/27 02:30:10;;;;;;;7.80;5.00;;;10.30;92.30;;;;;;5096371;28;20012;-50
2022/09/27 02:32:37;;;;;;;6.20;3.92;;;10.20;92.20;;;;;;5096262;28;20028;-49
2022/09/27 02:35:16;;;;;;;8.15;4.18;;;10.20;92.50;;;;;;5096279;28;20028;-50
2022/09/27 02:37:41;;;;;;;7.15;4.05;;;10.20;92.40;;;;;;5095093;28;20031;-50
2022/09/27 02:40:07;;;;;;;5.90;4.15;;;10.20;92.50;;;;;;5095919;28;20028;-49
2022/09/27 02:42:34;;;;;;;6.72;3.17;;;10.20;92.60;;;;;;5096179;28;20107;-49
2022/09/27 02:45:02;;;;;;;9.68;3.75;;;10.20;92.40;;;;;;5094442;28;20145;-49
2022/09/27 02:47:52;;;;;;;6.07;3.00;;;10.20;92.20;;;;;;5095934;28;20506;-48
2022/09/27 02:50:38;;;;;;;7.35;3.25;;;10.10;92.10;;;;;;5095936;28;20032;-50
2022/09/27 02:53:13;;;;;;;8.32;2.80;;;10.10;92.10;;;;;;5095646;28;20051;-49
2022/09/27 02:55:50;;;;;;;4.75;2.47;;;10.10;92.20;;;;;;5095864;28;20024;-51
2022/09/27 02:58:23;;;;;;;6.00;2.58;;;10.10;92.00;;;;;;5095675;28;20357;-47
2022/09/27 03:07:38;;;;;;;10.80;2.63;;;9.90;91.90;;;;;;5115539;28;20031;-53
2022/09/27 03:10:06;;;;;;;8.57;2.30;;;9.90;92.00;;;;;;5115478;28;20098;-50
2022/09/27 03:12:32;;;;;;;12.80;3.08;;;9.90;92.10;;;;;;5115471;28;20446;-48
2022/09/27 03:14:59;;;;;;;3.58;2.40;;;9.90;92.00;;;;;;5096997;28;20162;-48
2022/09/27 03:17:25;;;;;;;4.03;3.45;;;9.90;92.00;;;;;;5115599;28;20046;-47
2022/09/27 03:19:51;;;;;;;6.13;3.30;;;10.00;92.10;;;;;;5115579;28;20031;-47
2022/09/27 03:22:17;;;;;;;9.75;3.70;;;10.00;92.10;;;;;;5115698;28;20088;-47
2022/09/27 03:24:42;;;;;;;7.28;2.80;;;10.00;92.00;;;;;;5115342;28;20051;-47
2022/09/27 03:27:09;;;;;;;6.18;3.55;;;9.90;92.00;;;;;;5115316;28;20046;-50
2022/09/27 03:29:35;;;;;;;4.70;2.88;;;9.90;92.10;;;;;;5115635;28;20019;-51
2022/09/27 03:32:01;;;;;;;5.38;3.35;;;9.90;92.20;;;;;;5115551;28;20157;-47
2022/09/27 03:34:28;;;;;;;5.13;3.40;;;9.90;92.40;;;;;;5115159;28;20032;-48
2022/09/27 03:36:53;;;;;;;8.65;3.35;;;9.80;92.40;;;;;;5115251;28;20486;-48
2022/09/27 03:39:19;;;;;;;7.32;4.07;;;9.80;92.40;;;;;;5115022;28;20031;-48
2022/09/27 03:41:44;;;;;;;6.65;3.53;;;9.70;92.50;;;;;;5115240;28;20027;-47
2022/09/27 03:44:10;;;;;;;6.30;4.80;;;9.70;92.70;;;;;;5115095;28;20027;-48
2022/09/27 03:46:36;;;;;;;8.15;4.18;;;9.60;93.00;;;;;;5115361;28;20096;-49
2022/09/27 03:49:01;;;;;;;9.90;4.57;;;9.60;93.20;;;;;;5115160;28;20081;-48
2022/09/27 03:51:27;;;;;;;6.70;5.05;;;9.70;93.20;;;;;;5114886;28;20015;-50
2022/09/27 03:53:52;;;;;;;10.60;5.70;;;9.80;92.90;;;;;;5114822;28;20028;-47
2022/09/27 03:56:18;;;;;;;18.73;5.95;;;9.70;92.90;;;;;;5114840;28;20487;-48
2022/09/27 03:58:44;;;;;;;13.23;4.95;;;9.70;93.00;;;;;;5115067;28;20487;-49
2022/09/27 04:01:10;;;;;;;13.23;5.97;;;9.70;93.20;;;;;;5114711;28;20024;-48
2022/09/27 04:03:35;;;;;;;15.60;7.10;;;9.70;93.10;;;;;;5114708;28;20103;-47
2022/09/27 04:06:02;;;;;;;15.50;7.32;;;9.60;93.00;;;;;;5115028;28;20028;-48
2022/09/27 04:08:29;;;;;;;20.55;7.15;;;9.70;93.10;;;;;;5113963;28;20204;-47
2022/09/27 04:10:55;;;;;;;12.82;6.95;;;9.70;93.00;;;;;;5096286;28;20383;-48
2022/09/27 04:13:22;;;;;;;14.35;5.90;;;9.80;93.00;;;;;;5114612;28;20113;-47
2022/09/27 04:15:47;;;;;;;8.35;6.15;;;9.80;92.70;;;;;;5114613;28;20089;-48
2022/09/27 04:18:13;;;;;;;16.17;8.70;;;9.80;92.70;;;;;;5114599;28;20032;-48
2022/09/27 04:20:39;;;;;;;15.95;7.15;;;9.80;92.60;;;;;;5114292;28;20027;-50
2022/09/27 04:23:05;;;;;;;15.95;8.38;;;9.80;92.70;;;;;;5114331;28;20023;-49
2022/09/27 04:25:33;;;;;;;13.85;8.88;;;9.80;92.60;;;;;;5114225;28;20126;-49
2022/09/27 04:28:00;;;;;;;16.00;8.00;;;9.80;92.80;;;;;;5114401;28;20069;-48
2022/09/27 04:30:26;;;;;;;20.42;7.50;;;9.80;92.80;;;;;;5114419;28;20460;-48
2022/09/27 04:32:52;;;;;;;17.95;8.65;;;9.80;92.60;;;;;;5114146;28;20028;-48
2022/09/27 04:38:02;;;;;;;12.05;7.20;;;9.80;92.60;;;;;;5114381;28;20076;-48
2022/09/27 04:40:28;;;;;;;9.25;6.57;;;9.80;92.60;;;;;;5113905;28;20031;-49
2022/09/27 04:42:54;;;;;;;14.88;8.15;;;9.80;92.50;;;;;;5114538;28;20166;-48
2022/09/27 04:45:20;;;;;;;13.82;7.50;;;9.80;92.40;;;;;;5095586;28;20032;-47
2022/09/27 04:47:47;;;;;;;10.98;7.32;;;9.70;92.50;;;;;;5096556;28;20015;-47
2022/09/27 04:50:14;;;;;;;8.30;6.45;;;9.60;92.40;;;;;;5113813;28;20434;-49
2022/09/27 04:52:40;;;;;;;9.35;6.20;;;9.60;92.50;;;;;;5113737;28;20047;-49
2022/09/27 04:55:07;;;;;;;9.75;7.43;;;9.50;92.50;;;;;;5113543;28;20028;-47
2022/09/27 04:57:33;;;;;;;16.60;8.07;;;9.50;92.60;;;;;;5113593;28;20031;-47
2022/09/27 04:59:59;;;;;;;13.48;9.25;;;9.40;92.70;;;;;;5113629;28;20032;-48
2022/09/27 05:02:28;;;;;;;25.23;10.93;;;9.40;92.80;;;;;;5113807;28;20027;-48
2022/09/27 05:04:58;;;;;;;19.05;11.95;;;9.40;92.90;;;;;;5113500;28;20378;-47
2022/09/27 05:07:28;;;;;;;18.10;12.05;;;9.30;92.90;;;;;;5113794;28;20513;-48
2022/09/27 05:09:54;;;;;;;21.38;13.57;;;9.30;93.00;;;;;;5095519;28;20023;-49
2022/09/27 17:34:27;;;;;;;3.70;2.08;;;10.40;77.20;;;;;;5111456;27;20111;-48
2022/09/27 17:36:53;;;;;;;5.95;1.63;;;10.30;78.30;;;;;;5109414;28;20042;-49
2022/09/27 17:39:20;;;;;;;3.20;1.92;;;10.40;78.60;;;;;;5110618;28;20024;-49
2022/09/27 17:41:47;;;;;;;4.70;1.98;;;10.40;79.00;;;;;;5110324;28;20032;-47
2022/09/27 17:44:14;;;;;;;9.32;2.22;;;10.40;79.60;;;;;;5110022;28;20039;-49
2022/09/27 17:46:41;;;;;;;3.92;2.08;;;10.40;79.90;;;;;;5110443;28;20034;-47
2022/09/27 17:51:54;;;;;;;5.15;1.67;;;10.30;80.40;;;;;;5110673;28;20105;-47
2022/09/27 17:54:22;;;;;;;6.40;1.92;;;10.30;80.70;;;;;;5091846;28;20019;-49
2022/09/27 17:56:48;;;;;;;5.75;2.55;;;10.30;81.00;;;;;;5110128;28;20060;-47
2022/09/27 17:59:15;;;;;;;6.63;2.13;;;10.30;80.80;;;;;;5110344;28;20027;-47
2022/09/27 18:01:42;;;;;;;8.55;2.17;;;10.30;80.90;;;;;;5110339;28;20463;-48
2022/09/27 18:04:11;;;;;;;9.85;1.95;;;10.30;81.00;;;;;;5110303;28;20357;-47
2022/09/27 18:06:42;;;;;;;6.07;1.98;;;10.30;80.90;;;;;;5110088;28;20024;-48
2022/09/27 18:09:10;;;;;;;4.35;1.75;;;10.20;80.80;;;;;;5108479;28;20031;-48
2022/09/27 18:11:37;;;;;;;5.22;1.92;;;10.20;80.90;;;;;;5109920;28;20384;-47
2022/09/27 18:14:03;;;;;;;7.72;3.10;;;10.20;80.80;;;;;;5109827;28;20028;-47
2022/09/27 18:16:38;;;;;;;9.85;2.13;;;10.20;80.70;;;;;;5109685;28;20030;-47
2022/09/27 18:19:05;;;;;;;3.70;2.00;;;10.20;80.90;;;;;;5109983;28;20028;-48
2022/09/27 18:21:31;;;;;;;7.50;1.73;;;10.30;80.70;;;;;;5109833;28;20016;-49
2022/09/27 18:23:59;;;;;;;6.28;3.20;;;10.30;80.80;;;;;;5109764;28;20418;-47
2022/09/27 18:26:27;;;;;;;2.92;1.80;;;10.20;81.10;;;;;;5109859;28;20031;-50
2022/09/27 18:28:59;;;;;;;3.72;1.60;;;10.20;81.80;;;;;;5108015;28;20028;-50
2022/09/27 18:31:25;;;;;;;6.00;2.10;;;10.20;81.80;;;;;;5109964;28;20028;-48
2022/09/27 18:34:24;;;;;;;3.83;2.15;;;10.20;81.90;;;;;;5108230;28;20048;-48
2022/09/27 18:36:49;;;;;;;6.90;2.25;;;10.10;82.80;;;;;;5109854;28;20027;-48
2022/09/27 18:39:21;;;;;;;7.53;2.70;;;10.10;83.00;;;;;;5109401;28;20020;-52
2022/09/27 18:41:47;;;;;;;3.50;1.90;;;10.00;83.50;;;;;;5108792;28;20476;-48
2022/09/27 18:44:14;;;;;;;4.90;2.70;;;10.00;83.90;;;;;;5104606;28;20024;-50
2022/09/27 18:46:40;;;;;;;9.18;3.00;;;10.10;84.00;;;;;;5094508;28;20089;-48
2022/09/27 18:49:09;;;;;;;4.25;2.67;;;10.00;84.50;;;;;;5095896;28;20026;-47
2022/09/27 18:51:36;;;;;;;4.50;2.67;;;9.90;84.30;;;;;;5095893;28;20028;-49
2022/09/27 18:54:05;;;;;;;7.95;2.88;;;9.80;85.00;;;;;;5094836;28;20494;-48
2022/09/27 18:56:37;;;;;;;4.60;1.98;;;9.70;85.20;;;;;;5095820;28;20020;-50
2022/09/27 18:59:07;;;;;;;4.43;2.05;;;9.70;85.20;;;;;;5095880;28;20032;-52
2022/09/27 19:01:46;;;;;;;5.40;1.80;;;9.80;85.60;;;;;;5095891;28;20138;-49
2022/09/27 19:04:15;;;;;;;5.72;1.77;;;9.80;86.00;;;;;;5094301;28;20052;-41
2022/09/27 19:06:41;;;;;;;5.15;2.80;;;9.70;85.80;;;;;;5096163;28;20039;-40
2022/09/27 19:09:07;;;;;;;4.95;1.92;;;9.60;86.20;;;;;;5093946;28;20436;-40
2022/09/27 19:11:33;;;;;;;4.35;2.22;;;9.50;86.50;;;;;;5094086;28;20106;-41
2022/09/27 19:14:00;;;;;;;4.65;3.00;;;9.50;86.80;;;;;;5093902;28;20031;-39
2022/09/27 19:16:27;;;;;;;3.10;2.30;;;9.50;87.10;;;;;;5095202;28;20049;-39
2022/09/27 19:18:53;;;;;;;5.72;2.30;;;9.50;86.80;;;;;;5095274;28;20027;-39
2022/09/27 19:21:27;;;;;;;4.57;2.33;;;9.50;86.90;;;;;;5095362;28;20032;-39
2022/09/27 19:23:52;;;;;;;5.35;2.15;;;9.50;87.10;;;;;;5094944;28;20039;-39
2022/09/27 19:26:21;;;;;;;6.35;2.85;;;9.50;87.10;;;;;;5095409;28;20413;-39
2022/09/27 19:28:47;;;;;;;5.70;2.85;;;9.50;87.50;;;;;;5095295;28;20020;-40
2022/09/27 19:31:18;;;;;;;16.48;7.60;;;9.50;87.60;;;;;;5076835;28;20100;-40
2022/09/27 19:33:44;;;;;;;11.90;5.68;;;9.50;87.90;;;;;;5093189;28;20126;-39
2022/09/27 19:36:12;;;;;;;3.88;2.28;;;9.60;87.90;;;;;;5095035;28;20048;-39
2022/09/27 19:38:38;;;;;;;6.93;3.13;;;9.50;87.80;;;;;;5094754;28;20020;-40
2022/09/27 19:41:06;;;;;;;11.27;3.17;;;9.60;88.20;;;;;;5094883;28;20419;-39
2022/09/27 19:43:32;;;;;;;7.53;2.47;;;9.50;88.00;;;;;;5093267;28;20028;-39
2022/09/27 19:46:06;;;;;;;9.73;3.45;;;9.50;88.20;;;;;;5094700;28;20028;-39
2022/09/27 19:48:32;;;;;;;6.35;3.25;;;9.40;88.30;;;;;;5095081;28;20031;-40
2022/09/27 19:50:59;;;;;;;7.85;3.15;;;9.40;88.40;;;;;;5094724;28;20032;-40
2022/09/27 19:53:25;;;;;;;6.20;3.17;;;9.50;88.70;;;;;;5094463;28;20031;-39
2022/09/27 19:56:02;;;;;;;4.35;2.53;;;9.50;88.80;;;;;;5092097;28;20025;-40
2022/09/27 19:58:30;;;;;;;8.40;2.72;;;9.50;88.80;;;;;;5094331;28;20125;-40
2022/09/27 20:01:11;;;;;;;7.88;3.28;;;9.50;88.70;;;;;;5094224;28;20101;-40
2022/09/27 20:03:40;;;;;;;7.68;3.60;;;9.50;88.70;;;;;;5093209;28;20044;-40
2022/09/27 20:06:08;;;;;;;9.00;2.97;;;9.50;88.80;;;;;;5094224;28;20024;-39
2022/09/27 20:08:34;;;;;;;4.47;2.78;;;9.50;88.80;;;;;;5094392;28;20032;-39
2022/09/27 20:11:02;;;;;;;4.70;2.90;;;9.40;88.80;;;;;;5094345;28;20035;-40
2022/09/27 20:13:29;;;;;;;7.30;3.17;;;9.40;88.90;;;;;;5092544;28;20069;-40
2022/09/27 20:16:24;;;;;;;10.70;5.63;;;9.50;89.30;;;;;;5093951;28;20027;-39
2022/09/27 20:18:52;;;;;;;6.57;2.95;;;9.50;89.00;;;;;;5094475;28;20066;-39
2022/09/27 20:21:20;;;;;;;7.15;3.05;;;9.50;89.10;;;;;;5094208;28;20089;-38
2022/09/27 20:23:52;;;;;;;4.10;2.45;;;9.50;89.50;;;;;;5094020;28;20579;-40
2022/09/27 20:26:21;;;;;;;6.43;3.10;;;9.50;89.60;;;;;;5094499;28;20035;-40
2022/09/27 20:28:49;;;;;;;3.83;2.25;;;9.40;89.30;;;;;;5094540;28;20031;-39
2022/09/27 20:31:21;;;;;;;5.18;2.83;;;9.40;89.70;;;;;;5094092;28;20430;-39
2022/09/27 20:33:49;;;;;;;11.35;3.35;;;9.30;90.00;;;;;;5093871;28;20490;-39
2022/09/27 20:36:22;;;;;;;7.40;3.17;;;9.30;90.30;;;;;;5093659;28;20077;-40
2022/09/27 20:38:52;;;;;;;6.30;3.35;;;9.50;90.40;;;;;;5093587;28;20364;-39
2022/09/27 20:41:20;;;;;;;8.18;3.95;;;9.40;90.30;;;;;;5093767;28;20050;-40
2022/09/27 20:43:50;;;;;;;9.57;4.20;;;9.40;90.40;;;;;;5092233;28;20032;-41
2022/09/27 20:46:17;;;;;;;9.68;4.43;;;9.40;90.70;;;;;;5093741;28;20518;-40
2022/09/27 20:48:43;;;;;;;8.25;4.03;;;9.40;90.70;;;;;;5093488;28;20024;-40
2022/09/27 20:51:13;;;;;;;14.88;6.05;;;9.40;90.70;;;;;;5093537;28;20032;-41
2022/09/27 20:53:41;;;;;;;9.18;4.07;;;9.40;90.90;;;;;;5093437;28;20483;-40
2022/09/27 20:56:25;;;;;;;8.52;5.45;;;9.50;90.80;;;;;;5093718;28;20120;-39
2022/09/27 20:58:53;;;;;;;9.07;5.22;;;9.50;90.90;;;;;;5093706;28;20028;-39
2022/09/27 21:01:21;;;;;;;8.93;5.30;;;9.50;90.90;;;;;;5093316;28;20012;-40
2022/09/27 21:03:48;;;;;;;11.25;5.15;;;9.50;91.10;;;;;;5093646;28;20077;-39
2022/09/27 21:06:14;;;;;;;8.57;5.63;;;9.50;91.20;;;;;;5094080;28;20020;-40
2022/09/27 21:08:41;;;;;;;12.85;7.25;;;9.50;91.40;;;;;;5091737;28;20028;-40
2022/09/27 21:11:14;;;;;;;12.48;6.75;;;9.40;91.30;;;;;;5093217;28;20020;-40
2022/09/27 21:13:40;;;;;;;17.58;6.03;;;9.40;91.40;;;;;;5093165;28;20032;-41
2022/09/27 21:16:08;;;;;;;10.40;6.72;;;9.40;91.50;;;;;;5093102;28;20094;-39
2022/09/27 21:18:35;;;;;;;9.35;5.70;;;9.40;91.50;;;;;;5093432;28;20024;-39
2022/09/27 21:21:07;;;;;;;14.73;7.13;;;9.30;91.50;;;;;;5091787;28;20028;-39
2022/09/27 21:23:34;;;;;;;9.63;6.07;;;9.30;91.70;;;;;;5093119;28;20016;-39
2022/09/27 21:26:06;;;;;;;10.40;6.10;;;9.30;91.60;;;;;;5092955;28;20016;-39
2022/09/27 21:28:37;;;;;;;11.13;6.88;;;9.30;92.00;;;;;;5091931;28;20054;-39
2022/09/27 21:31:11;;;;;;;12.07;6.75;;;9.30;92.10;;;;;;5091704;28;20119;-38
2022/09/27 21:33:38;;;;;;;12.65;6.63;;;9.30;92.20;;;;;;5091432;28;20088;-38
2022/09/27 21:36:05;;;;;;;13.30;7.55;;;9.30;92.10;;;;;;5093180;28;20035;-38
2022/09/27 21:38:32;;;;;;;11.45;6.78;;;9.30;92.10;;;;;;5092845;28;20027;-38
2022/09/27 21:41:02;;;;;;;13.43;6.13;;;9.30;92.20;;;;;;5092760;28;20070;-38
2022/09/27 21:43:29;;;;;;;;;;;9.30;92.30;;;;;;5092225;28;20417;-39
2022/09/27 21:46:01;;;;;;;11.43;6.88;;;9.30;92.30;;;;;;5092328;28;19904;-39
2022/09/27 21:48:29;;;;;;;10.85;7.35;;;9.30;92.40;;;;;;5091799;28;20024;-39
2022/09/27 21:51:08;;;;;;;13.68;7.03;;;9.30;92.50;;;;;;5091521;28;20028;-40
2022/09/27 21:53:35;;;;;;;14.02;8.55;;;9.30;92.40;;;;;;5091423;28;20055;-40
2022/09/27 21:56:02;;;;;;;13.70;7.70;;;9.30;92.50;;;;;;5092158;28;20063;-39
2022/09/27 21:58:31;;;;;;;18.38;9.13;;;9.30;92.60;;;;;;5091740;28;20028;-40
2022/09/27 22:00:56;;;;;;;18.27;8.10;;;9.30;92.70;;;;;;5074689;28;20044;-38
2022/09/27 22:03:22;;;;;;;12.35;8.15;;;9.30;92.70;;;;;;5093116;28;20495;-39
2022/09/27 22:05:49;;;;;;;14.82;8.38;;;9.20;92.70;;;;;;5092766;28;20024;-40
2022/09/27 22:08:17;;;;;;;15.68;8.30;;;9.30;92.80;;;;;;5093133;28;20024;-41
2022/09/27 22:10:44;;;;;;;13.18;8.45;;;9.30;92.30;;;;;;5092772;28;20023;-50
2022/09/27 22:13:11;;;;;;;14.65;7.97;;;9.30;92.20;;;;;;5092642;28;20032;-38
2022/09/27 22:15:40;;;;;;;17.00;8.05;;;9.30;92.30;;;;;;5092750;28;20103;-40
2022/09/27 22:18:06;;;;;;;17.17;8.27;;;9.20;92.20;;;;;;5093218;28;20439;-39
2022/09/27 22:20:31;;;;;;;13.65;7.35;;;9.20;92.10;;;;;;5095210;28;20043;-39
2022/09/27 22:22:57;;;;;;;10.18;6.72;;;9.20;92.00;;;;;;5096877;28;20081;-40
2022/09/27 22:25:23;;;;;;;13.07;7.68;;;9.30;92.10;;;;;;5096714;28;20036;-38
2022/09/27 22:27:48;;;;;;;14.10;7.57;;;9.30;91.80;;;;;;5095719;28;20032;-38
2022/09/27 22:30:16;;;;;;;18.15;8.75;;;9.40;91.70;;;;;;5096537;28;20108;-40
2022/09/27 22:32:44;;;;;;;16.08;7.90;;;9.50;91.80;;;;;;5096841;28;20387;-40
2022/09/27 22:35:10;;;;;;;15.00;8.23;;;9.50;91.10;;;;;;5096599;28;20432;-38
2022/09/27 22:37:36;;;;;;;19.73;8.98;;;9.40;91.10;;;;;;5096306;28;20030;-39
2022/09/27 22:40:03;;;;;;;13.63;8.23;;;9.40;91.10;;;;;;5094704;28;20020;-38
2022/09/27 22:42:28;;;;;;;14.95;8.52;;;9.40;91.20;;;;;;5096250;28;20403;-38
2022/09/27 22:44:54;;;;;;;16.40;8.85;;;9.30;91.30;;;;;;5096077;28;20036;-39
2022/09/27 22:47:20;;;;;;;17.20;8.57;;;9.30;91.60;;;;;;5096365;28;20024;-38
2022/09/27 22:49:45;;;;;;;14.65;8.48;;;9.40;91.80;;;;;;5095809;28;20053;-38
2022/09/27 22:52:11;;;;;;;14.70;8.18;;;9.30;91.60;;;;;;5095775;28;20027;-38
2022/09/27 22:54:36;;;;;;;18.35;10.27;;;9.30;92.00;;;;;;5096183;28;20028;-44
2022/09/27 22:57:02;;;;;;;15.70;9.73;;;9.40;92.00;;;;;;5095758;28;20078;-39
2022/09/27 22:59:28;;;;;;;23.73;11.43;;;9.30;91.80;;;;;;5095947;28;20028;-43
2022/09/27 23:01:54;;;;;;;17.25;10.88;;;9.30;92.00;;;;;;5094481;28;20529;-39
2022/09/27 23:04:20;;;;;;;21.73;11.25;;;9.30;92.20;;;;;;5095724;28;20062;-39
2022/09/27 23:06:49;;;;;;;20.23;11.23;;;9.30;92.30;;;;;;5095932;28;20024;-38
2022/09/27 23:09:14;;;;;;;19.70;11.90;;;9.30;92.30;;;;;;5095828;28;20028;-39
2022/09/27 23:11:40;;;;;;;26.38;13.80;;;9.40;92.10;;;;;;5095482;28;20093;-38
2022/09/27 23:14:07;;;;;;;20.42;11.43;;;9.50;91.90;;;;;;5095266;28;20471;-38
2022/09/27 23:16:34;;;;;;;22.08;12.95;;;9.30;91.40;;;;;;5096369;28;20024;-39
2022/09/27 23:19:00;;;;;;;16.90;11.02;;;9.20;91.80;;;;;;5095594;28;20023;-38
2022/09/27 23:21:27;;;;;;;21.48;13.05;;;9.30;91.90;;;;;;5095408;28;20108;-39
2022/09/27 23:23:58;;;;;;;21.25;12.27;;;9.30;91.90;;;;;;5095420;28;20365;-39
2022/09/27 23:26:25;;;;;;;21.05;10.45;;;9.30;92.00;;;;;;5095143;28;20032;-38
2022/09/27 23:28:52;;;;;;;19.75;11.68;;;9.30;91.90;;;;;;5095212;28;20117;-39
2022/09/27 23:31:20;;;;;;;18.52;10.60;;;9.30;91.80;;;;;;5095107;28;20043;-38
2022/09/27 23:33:47;;;;;;;17.30;9.23;;;9.30;91.30;;;;;;5094554;28;20047;-38
2022/09/27 23:36:19;;;;;;;19.42;10.18;;;9.30;91.00;;;;;;5094939;28;20028;-38
2022/09/27 23:38:47;;;;;;;20.30;10.57;;;9.30;90.90;;;;;;5095228;28;20107;-38
2022/09/27 23:41:14;;;;;;;19.38;9.38;;;9.30;90.70;;;;;;5095206;28;20025;-40
2022/09/27 23:43:40;;;;;;;25.45;10.43;;;9.20;90.80;;;;;;5094880;28;20081;-39
2022/09/27 23:46:07;;;;;;;18.83;11.07;;;9.10;91.00;;;;;;5094759;28;20062;-39
2022/09/27 23:48:34;;;;;;;20.13;10.80;;;9.10;91.30;;;;;;5095087;28;20042;-38
2022/09/27 23:51:00;;;;;;;19.80;10.63;;;9.10;91.30;;;;;;5094701;28;20020;-38
2022/09/27 23:53:27;;;;;;;18.92;10.55;;;8.90;91.40;;;;;;5094864;28;20375;-38
2022/09/27 23:56:01;;;;;;;20.70;10.55;;;8.80;91.90;;;;;;5094541;28;20028;-39
2022/09/27 23:58:28;;;;;;;23.58;12.05;;;8.90;92.10;;;;;;5095023;28;20024;-38
